Time;durP1;ratioP1;P1;durP2;ratioP2;P2;SDS_P1;SDS_P2;PMS_P1;PMS_P2;Temp;Humidity;BMP_temperature;BMP_pressure;BME280_temperature;BME280_humidity;BME280_pressure;Samples;Min_cycle;Max_cycle;Signal;HPM_P1;HPM_P2
2022/01/24 00:02:17;;;;;;;0.90;0.90;;;3.50;99.90;;;;;;5069421;28;20194;-59
2022/01/24 00:04:43;;;;;;;1.93;1.30;;;3.40;99.90;;;;;;5067308;28;20213;-56
2022/01/24 00:07:08;;;;;;;1.13;1.13;;;3.40;99.90;;;;;;5070014;28;20268;-54
2022/01/24 00:09:36;;;;;;;1.30;0.87;;;3.40;99.90;;;;;;5066619;28;20185;-55
2022/01/24 00:12:15;;;;;;;0.90;0.90;;;3.40;99.90;;;;;;5070284;28;20190;-54
2022/01/24 00:18:01;;;;;;;1.20;1.13;;;3.30;99.90;;;;;;5045833;28;20277;-60
2022/01/24 00:28:44;;;;;;;1.33;1.13;;;3.20;99.90;;;;;;5065189;28;20209;-59
2022/01/24 00:31:30;;;;;;;1.03;1.00;;;3.10;99.90;;;;;;5062554;28;20193;-60
2022/01/24 00:34:16;;;;;;;1.37;1.27;;;3.10;99.90;;;;;;5063904;28;20318;-58
2022/01/24 00:37:01;;;;;;;1.17;1.00;;;3.10;99.90;;;;;;5064614;28;20194;-55
2022/01/24 00:39:47;;;;;;;1.00;0.90;;;3.10;99.90;;;;;;5062214;28;20301;-51
2022/01/24 00:42:43;;;;;;;1.33;0.90;;;3.10;99.90;;;;;;5065322;28;20205;-58
2022/01/24 00:56:39;;;;;;;1.97;1.87;;;3.30;99.90;;;;;;5082459;28;20284;-54
2022/01/24 00:59:05;;;;;;;3.10;1.47;;;3.30;99.90;;;;;;5068555;28;20215;-59
2022/01/24 01:01:31;;;;;;;2.50;1.00;;;3.30;99.90;;;;;;5066153;28;20192;-60
2022/01/24 01:03:56;;;;;;;1.17;1.07;;;3.30;99.90;;;;;;5069169;28;20225;-59
2022/01/24 01:06:22;;;;;;;1.20;1.20;;;3.30;99.90;;;;;;5066683;28;20182;-60
2022/01/24 01:19:46;;;;;;;1.27;1.17;;;3.20;99.90;;;;;;5084217;28;20178;-59
2022/01/24 01:22:12;;;;;;;0.87;0.87;;;3.30;99.90;;;;;;5067249;28;20277;-59
2022/01/24 01:24:44;;;;;;;1.43;1.33;;;3.30;99.90;;;;;;5068052;28;20241;-59
2022/01/24 01:27:16;;;;;;;0.97;0.97;;;3.20;99.90;;;;;;5066734;28;20189;-56
2022/01/24 01:29:51;;;;;;;0.90;0.90;;;3.30;99.90;;;;;;5068560;28;20177;-61
2022/01/24 01:38:22;;;;;;;0.97;0.97;;;3.20;99.90;;;;;;5084816;28;20224;-58
2022/01/24 01:57:22;;;;;;;1.13;1.07;;;3.40;99.90;;;;;;5083386;28;20629;-51
2022/01/24 01:59:49;;;;;;;3.43;1.40;;;3.30;99.90;;;;;;5067290;28;20193;-52
2022/01/24 02:02:14;;;;;;;1.23;1.23;;;3.30;99.90;;;;;;5064976;28;20182;-52
2022/01/24 02:04:41;;;;;;;1.00;1.00;;;3.30;99.90;;;;;;5067610;28;20317;-56
2022/01/24 02:07:12;;;;;;;1.57;1.27;;;3.30;99.90;;;;;;5065681;28;20280;-59
2022/01/24 02:09:41;;;;;;;0.97;0.93;;;3.20;99.90;;;;;;5066131;28;20182;-55
2022/01/24 02:12:27;;;;;;;0.70;0.70;;;3.20;99.90;;;;;;5083869;28;20201;-57
2022/01/24 02:14:58;;;;;;;0.90;0.90;;;3.20;99.90;;;;;;5065643;28;20197;-59
2022/01/24 02:17:38;;;;;;;0.70;0.70;;;3.20;99.90;;;;;;5067803;28;20242;-55
2022/01/24 02:26:08;;;;;;;1.53;0.83;;;3.10;99.90;;;;;;5065267;28;20212;-61
2022/01/24 02:31:39;;;;;;;1.00;1.00;;;3.10;99.90;;;;;;5082890;28;20209;-58
2022/01/24 02:34:25;;;;;;;1.90;1.10;;;3.10;99.90;;;;;;5066325;28;20185;-56
2022/01/24 02:36:55;;;;;;;0.80;0.80;;;3.00;99.90;;;;;;5064111;28;20272;-57
2022/01/24 02:50:26;;;;;;;1.10;1.10;;;2.90;99.90;;;;;;5081672;28;20190;-53
2022/01/24 02:52:52;;;;;;;1.90;1.57;;;2.90;99.90;;;;;;5065376;28;20189;-60
2022/01/24 02:55:18;;;;;;;1.20;1.20;;;2.90;99.90;;;;;;5066214;28;20200;-58
2022/01/24 02:57:44;;;;;;;2.30;1.60;;;2.90;99.90;;;;;;5065094;28;20208;-52
2022/01/24 03:00:10;;;;;;;1.80;1.17;;;2.80;99.90;;;;;;5066366;28;20225;-56
2022/01/24 03:02:36;;;;;;;1.10;1.10;;;2.80;99.90;;;;;;5063794;28;20182;-59
2022/01/24 03:05:02;;;;;;;2.27;1.47;;;2.80;99.90;;;;;;5066957;28;20242;-56
2022/01/24 03:07:29;;;;;;;1.23;1.23;;;2.90;99.90;;;;;;5064283;28;20223;-54
2022/01/24 03:09:56;;;;;;;1.37;1.37;;;2.90;99.90;;;;;;5066084;28;20202;-54
2022/01/24 03:12:43;;;;;;;2.47;1.73;;;2.80;99.90;;;;;;5065088;28;20188;-60
2022/01/24 03:15:10;;;;;;;1.43;1.33;;;2.80;99.90;;;;;;5064712;28;20190;-50
2022/01/24 03:17:37;;;;;;;1.97;1.87;;;2.80;99.90;;;;;;5066481;28;20194;-56
2022/01/24 03:20:04;;;;;;;1.47;1.37;;;2.90;99.90;;;;;;5063279;28;20186;-48
2022/01/24 03:22:32;;;;;;;1.60;1.50;;;2.90;99.90;;;;;;5083288;28;20181;-61
2022/01/24 03:24:58;;;;;;;1.70;1.57;;;2.90;99.90;;;;;;5064726;28;20221;-58
2022/01/24 03:27:24;;;;;;;1.60;1.50;;;2.90;99.90;;;;;;5065517;28;20182;-52
2022/01/24 03:29:50;;;;;;;3.47;2.03;;;2.90;99.90;;;;;;5065872;28;20194;-60
2022/01/24 03:32:16;;;;;;;2.37;2.17;;;2.80;99.90;;;;;;5063974;28;20207;-57
2022/01/24 03:34:42;;;;;;;2.00;1.67;;;2.80;99.90;;;;;;5067921;28;20193;-58
2022/01/24 03:37:09;;;;;;;2.13;1.93;;;2.80;99.90;;;;;;5067867;28;20227;-59
2022/01/24 03:39:35;;;;;;;2.30;2.10;;;2.80;99.90;;;;;;5070190;28;20259;-60
2022/01/24 03:42:00;;;;;;;1.70;1.60;;;2.80;99.90;;;;;;5067669;28;20216;-61
2022/01/24 03:44:28;;;;;;;2.77;2.23;;;2.70;99.90;;;;;;5070535;28;20300;-51
2022/01/24 03:52:18;;;;;;;3.37;1.87;;;2.50;99.90;;;;;;5086427;28;20219;-56
2022/01/24 03:54:44;;;;;;;1.70;1.17;;;2.50;99.90;;;;;;5067135;28;20262;-51
2022/01/24 03:57:12;;;;;;;1.37;1.27;;;2.50;99.90;;;;;;5070267;28;20186;-56
2022/01/24 03:59:38;;;;;;;2.13;1.17;;;2.60;99.90;;;;;;5068162;28;20197;-61
2022/01/24 04:02:04;;;;;;;4.07;2.17;;;2.50;99.90;;;;;;5069318;28;20251;-54
2022/01/24 04:04:30;;;;;;;1.40;1.30;;;2.60;99.90;;;;;;5069225;28;20218;-61
2022/01/24 04:06:57;;;;;;;1.43;1.43;;;2.50;99.90;;;;;;5066976;28;20198;-47
2022/01/24 04:09:23;;;;;;;1.60;1.37;;;2.40;99.90;;;;;;5069432;28;20190;-57
2022/01/24 04:11:53;;;;;;;2.27;1.67;;;2.40;99.90;;;;;;5067623;28;20194;-52
2022/01/24 04:17:09;;;;;;;4.77;1.90;;;2.30;99.90;;;;;;5084363;28;20186;-57
2022/01/24 04:22:36;;;;;;;1.57;1.47;;;2.20;99.90;;;;;;5086154;28;20221;-60
2022/01/24 04:25:05;;;;;;;1.63;1.33;;;2.20;99.90;;;;;;5066738;28;20198;-54
2022/01/24 04:27:31;;;;;;;2.03;1.80;;;2.20;99.90;;;;;;5069750;28;20200;-59
2022/01/24 04:29:58;;;;;;;2.07;1.73;;;2.10;99.90;;;;;;5067225;28;20193;-60
2022/01/24 04:32:24;;;;;;;1.40;1.30;;;2.10;99.90;;;;;;5068669;28;20181;-56
2022/01/24 04:34:50;;;;;;;1.80;1.40;;;2.20;99.90;;;;;;5068589;28;20276;-59
2022/01/24 04:37:16;;;;;;;3.60;3.13;;;2.20;99.90;;;;;;5066916;28;20246;-60
2022/01/24 04:39:44;;;;;;;6.90;4.30;;;2.20;99.90;;;;;;5068386;28;20249;-57
2022/01/24 04:42:15;;;;;;;5.90;3.60;;;2.20;99.90;;;;;;5067188;28;20186;-58
2022/01/24 04:47:21;;;;;;;2.73;1.40;;;2.50;99.90;;;;;;5083522;28;20185;-59
2022/01/24 04:55:00;;;;;;;2.73;2.53;;;2.60;99.90;;;;;;5083315;28;20190;-58
2022/01/24 04:57:27;;;;;;;2.40;2.00;;;2.50;99.90;;;;;;5068834;28;20248;-55
2022/01/24 04:59:57;;;;;;;1.07;1.07;;;2.60;99.90;;;;;;5065613;28;20243;-61
2022/01/24 05:02:25;;;;;;;11.33;6.63;;;2.70;99.90;;;;;;5068961;28;20190;-54
2022/01/24 05:04:58;;;;;;;7.50;3.17;;;2.60;99.90;;;;;;5068084;28;20236;-55
2022/01/24 05:07:25;;;;;;;2.57;2.00;;;2.50;99.90;;;;;;5066405;28;20193;-59
2022/01/24 05:23:31;;;;;;;1.77;1.67;;;2.50;99.90;;;;;;5084882;28;20210;-50
2022/01/24 05:25:59;;;;;;;2.20;2.10;;;2.50;99.90;;;;;;5065853;28;20284;-61
2022/01/24 05:28:26;;;;;;;2.60;2.23;;;2.50;99.90;;;;;;5067914;28;20182;-53
2022/01/24 05:30:52;;;;;;;3.07;2.57;;;2.50;99.90;;;;;;5067054;28;20190;-62
2022/01/24 05:33:19;;;;;;;2.87;1.73;;;2.50;99.90;;;;;;5066154;28;20198;-57
2022/01/24 05:35:45;;;;;;;1.33;1.33;;;2.50;99.90;;;;;;5067450;28;20173;-50
2022/01/24 05:38:11;;;;;;;1.47;1.37;;;2.50;99.90;;;;;;5065731;28;20188;-48
2022/01/24 05:40:39;;;;;;;2.30;2.20;;;2.50;99.90;;;;;;5067920;28;20186;-58
2022/01/24 05:43:08;;;;;;;3.17;1.97;;;2.60;99.90;;;;;;5064830;28;20214;-53
2022/01/24 05:45:36;;;;;;;2.40;1.50;;;2.60;99.90;;;;;;5069052;28;20194;-58
2022/01/24 05:48:04;;;;;;;3.60;1.80;;;2.60;99.90;;;;;;5066291;28;20263;-60
2022/01/24 05:50:30;;;;;;;0.97;0.97;;;2.60;99.90;;;;;;5066415;28;20194;-59
2022/01/24 05:52:56;;;;;;;4.57;2.63;;;2.60;99.90;;;;;;5067571;28;20189;-57
2022/01/24 05:55:22;;;;;;;1.30;1.27;;;2.60;99.90;;;;;;5064749;28;20190;-55
2022/01/24 05:57:47;;;;;;;1.77;1.67;;;2.60;99.90;;;;;;5066264;28;20200;-50
2022/01/24 06:00:15;;;;;;;2.43;1.97;;;2.70;99.90;;;;;;5065400;28;20229;-61
2022/01/24 06:02:41;;;;;;;1.53;1.50;;;2.60;99.90;;;;;;5067565;28;20215;-60
2022/01/24 06:05:08;;;;;;;2.10;1.70;;;2.60;99.90;;;;;;5065052;28;20186;-62
2022/01/24 06:07:35;;;;;;;3.80;1.97;;;2.60;99.90;;;;;;5067616;28;20676;-59
2022/01/24 06:10:02;;;;;;;1.90;1.67;;;2.60;99.90;;;;;;5066389;28;20197;-61
2022/01/24 06:12:28;;;;;;;1.27;1.27;;;2.50;99.90;;;;;;5065466;28;20204;-50
2022/01/24 06:14:53;;;;;;;1.67;1.53;;;2.50;99.90;;;;;;5066819;28;20197;-53
2022/01/24 06:17:19;;;;;;;1.70;1.60;;;2.50;99.90;;;;;;5064925;28;20190;-58
2022/01/24 06:19:45;;;;;;;1.90;1.73;;;2.50;99.90;;;;;;5066771;28;20178;-55
2022/01/24 06:22:11;;;;;;;2.10;1.23;;;2.50;99.90;;;;;;5064889;28;20201;-58
2022/01/24 06:24:37;;;;;;;2.07;1.87;;;2.50;99.90;;;;;;5066924;28;20221;-60
2022/01/24 06:27:03;;;;;;;1.47;1.37;;;2.50;99.90;;;;;;5066293;28;20182;-60
2022/01/24 06:29:29;;;;;;;1.83;1.67;;;2.50;99.90;;;;;;5066853;28;20205;-59
2022/01/24 06:31:55;;;;;;;2.57;1.83;;;2.50;99.90;;;;;;5067039;28;20287;-57
2022/01/24 06:34:21;;;;;;;2.00;1.90;;;2.50;99.90;;;;;;5064412;28;20212;-49
2022/01/24 06:36:46;;;;;;;1.80;1.37;;;2.50;99.90;;;;;;5065867;28;20188;-59
2022/01/24 06:39:14;;;;;;;1.20;1.20;;;2.60;99.90;;;;;;5064225;28;20221;-47
2022/01/24 06:41:42;;;;;;;1.83;1.70;;;2.60;99.90;;;;;;5064637;28;20189;-51
2022/01/24 06:44:09;;;;;;;2.40;1.80;;;2.60;99.90;;;;;;5065214;28;20259;-58
2022/01/24 06:46:35;;;;;;;1.47;1.37;;;2.60;99.90;;;;;;5066297;28;20193;-59
2022/01/24 06:49:02;;;;;;;1.70;1.40;;;2.70;99.90;;;;;;5065682;28;20250;-61
2022/01/24 06:51:28;;;;;;;3.50;2.43;;;2.70;99.90;;;;;;5064445;28;20223;-59
2022/01/24 06:53:54;;;;;;;1.57;1.40;;;2.70;99.90;;;;;;5065981;28;20178;-54
2022/01/24 06:56:20;;;;;;;2.50;1.50;;;2.80;99.90;;;;;;5063911;28;20197;-56
2022/01/24 06:58:46;;;;;;;2.03;1.80;;;2.80;99.90;;;;;;5065514;28;20234;-55
2022/01/24 07:01:12;;;;;;;3.63;2.33;;;2.80;99.90;;;;;;5064669;28;20273;-59
2022/01/24 07:03:38;;;;;;;6.43;3.40;;;2.90;99.90;;;;;;5067485;28;20334;-51
2022/01/24 07:06:04;;;;;;;5.13;3.30;;;2.90;99.90;;;;;;5065552;28;20246;-47
2022/01/24 07:08:29;;;;;;;5.00;2.43;;;2.90;99.90;;;;;;5065512;28;20200;-45
2022/01/24 07:10:55;;;;;;;6.30;3.13;;;2.90;99.90;;;;;;5066360;28;20200;-62
2022/01/24 07:13:21;;;;;;;2.27;2.00;;;2.90;99.90;;;;;;5064683;28;20212;-54
2022/01/24 07:15:56;;;;;;;7.90;4.00;;;3.00;99.90;;;;;;5066780;28;20182;-54
2022/01/24 07:20:56;;;;;;;3.07;2.67;;;3.00;99.90;;;;;;5084031;28;20190;-56
2022/01/24 07:23:24;;;;;;;3.57;2.20;;;3.00;99.90;;;;;;5065625;28;20210;-52
2022/01/24 07:25:50;;;;;;;1.57;1.47;;;3.00;99.90;;;;;;5065605;28;20216;-54
2022/01/24 07:28:17;;;;;;;2.00;1.50;;;3.10;99.90;;;;;;5066536;28;20342;-58
2022/01/24 07:30:44;;;;;;;1.93;1.23;;;3.10;99.90;;;;;;5064630;28;20269;-54
2022/01/24 07:33:11;;;;;;;2.50;2.07;;;3.10;99.90;;;;;;5066562;28;20272;-55
2022/01/24 07:35:37;;;;;;;1.47;1.37;;;3.20;99.90;;;;;;5064532;28;20188;-51
2022/01/24 07:38:05;;;;;;;3.50;2.00;;;3.20;99.90;;;;;;5067005;28;20190;-57
2022/01/24 07:40:37;;;;;;;1.60;1.50;;;3.30;99.90;;;;;;5064912;28;20201;-61
2022/01/24 07:43:15;;;;;;;3.33;1.57;;;3.20;99.90;;;;;;5065686;28;20181;-61
2022/01/24 07:45:44;;;;;;;2.43;1.60;;;3.20;99.90;;;;;;5066970;28;20197;-57
2022/01/24 07:48:11;;;;;;;1.90;1.77;;;3.20;99.90;;;;;;5065181;28;20189;-59
2022/01/24 07:50:42;;;;;;;2.50;1.90;;;3.20;99.90;;;;;;5066518;28;20188;-56
2022/01/24 07:53:12;;;;;;;1.73;1.63;;;3.20;99.90;;;;;;5079143;28;20180;-55
2022/01/24 07:55:38;;;;;;;3.13;1.73;;;3.20;99.90;;;;;;5066194;28;20213;-61
2022/01/24 07:58:06;;;;;;;2.73;1.90;;;3.40;99.90;;;;;;5064573;28;20178;-56
2022/01/24 08:00:33;;;;;;;1.00;1.00;;;3.40;99.90;;;;;;5064741;28;20934;-56
2022/01/24 08:02:58;;;;;;;1.67;1.57;;;3.50;99.90;;;;;;5065603;28;20178;-55
2022/01/24 08:05:25;;;;;;;2.27;2.00;;;3.50;99.90;;;;;;5064513;28;20192;-61
2022/01/24 08:07:51;;;;;;;1.97;1.77;;;3.60;99.90;;;;;;5065919;28;20179;-55
2022/01/24 08:10:19;;;;;;;1.50;1.40;;;3.60;99.90;;;;;;5063753;28;20200;-55
2022/01/24 08:12:45;;;;;;;1.70;1.60;;;3.50;99.90;;;;;;5063975;28;20275;-53
2022/01/24 08:15:14;;;;;;;1.93;1.83;;;3.50;99.90;;;;;;5064940;28;20217;-57
2022/01/24 08:17:42;;;;;;;1.70;1.40;;;3.60;99.90;;;;;;5065291;28;20186;-56
2022/01/24 08:20:10;;;;;;;2.43;1.83;;;3.50;99.90;;;;;;5066056;28;20174;-56
2022/01/24 08:22:35;;;;;;;1.23;1.23;;;3.40;99.90;;;;;;5067145;28;20184;-54
2022/01/24 08:25:03;;;;;;;2.83;1.83;;;3.40;99.90;;;;;;5068853;28;20225;-46
2022/01/24 08:27:31;;;;;;;4.40;3.33;;;3.40;99.90;;;;;;5066650;28;20181;-54
2022/01/24 08:29:57;;;;;;;5.67;3.97;;;3.50;99.90;;;;;;5069416;28;20257;-60
2022/01/24 08:32:22;;;;;;;3.90;2.13;;;3.50;99.90;;;;;;5064343;28;20272;-55
2022/01/24 08:34:48;;;;;;;1.70;1.60;;;3.50;99.90;;;;;;5068504;28;20181;-54
2022/01/24 08:37:14;;;;;;;2.40;2.20;;;3.60;99.90;;;;;;5068161;28;20181;-54
2022/01/24 08:39:41;;;;;;;2.33;2.17;;;3.60;99.90;;;;;;5066656;28;20216;-50
2022/01/24 08:47:19;;;;;;;3.30;2.95;;;3.20;99.90;;;;;;5075171;28;20432;-54
2022/01/24 08:49:45;;;;;;;2.33;2.07;;;3.10;99.90;;;;;;5053889;28;20190;-50
2022/01/24 08:52:11;;;;;;;2.17;2.00;;;3.10;99.90;;;;;;5056705;28;20240;-58
2022/01/24 08:54:37;;;;;;;2.83;1.40;;;3.10;99.90;;;;;;5058959;28;20178;-54
2022/01/24 08:57:03;;;;;;;2.03;1.83;;;3.10;99.90;;;;;;5059623;28;20182;-56
2022/01/24 08:59:30;;;;;;;2.63;2.03;;;3.00;99.90;;;;;;5058527;28;20174;-50
2022/01/24 09:01:56;;;;;;;1.13;1.10;;;3.10;99.90;;;;;;5056675;28;20186;-56
2022/01/24 09:04:22;;;;;;;2.13;2.00;;;3.00;99.90;;;;;;5053341;28;20379;-61
2022/01/24 09:06:48;;;;;;;1.53;1.43;;;2.90;99.90;;;;;;5060012;28;20182;-46
2022/01/24 09:09:15;;;;;;;3.93;2.57;;;3.00;99.90;;;;;;5056669;28;20182;-60
2022/01/24 09:11:42;;;;;;;3.73;2.13;;;2.90;99.90;;;;;;5059272;28;20208;-59
2022/01/24 09:14:09;;;;;;;2.23;2.07;;;2.90;99.90;;;;;;5051473;28;20286;-54
2022/01/24 09:16:36;;;;;;;1.73;1.63;;;3.00;99.90;;;;;;5059443;28;20208;-44
2022/01/24 09:19:03;;;;;;;1.90;1.37;;;3.10;99.90;;;;;;5055357;28;20190;-51
2022/01/24 09:21:30;;;;;;;2.13;1.47;;;2.90;99.90;;;;;;5065749;28;20174;-59
2022/01/24 09:23:56;;;;;;;1.80;1.70;;;2.80;99.90;;;;;;5052925;28;20319;-60
2022/01/24 09:26:22;;;;;;;1.33;1.33;;;2.90;99.90;;;;;;5058094;28;20182;-59
2022/01/24 09:28:48;;;;;;;1.50;1.40;;;2.80;99.90;;;;;;5054153;28;20244;-50
2022/01/24 09:31:14;;;;;;;1.53;1.43;;;2.90;99.90;;;;;;5059457;28;20235;-46
2022/01/24 09:33:40;;;;;;;1.57;1.47;;;3.00;99.90;;;;;;5051908;28;20186;-52
2022/01/24 09:36:06;;;;;;;2.00;1.67;;;2.90;99.90;;;;;;5053919;28;20175;-61
2022/01/24 09:38:33;;;;;;;2.77;2.17;;;3.00;99.90;;;;;;5055877;28;20241;-58
2022/01/24 09:41:03;;;;;;;3.00;2.27;;;3.20;99.90;;;;;;5055749;28;20237;-58
2022/01/24 09:43:29;;;;;;;1.70;1.60;;;3.40;99.90;;;;;;5055603;28;20225;-45
2022/01/24 09:45:56;;;;;;;1.67;1.57;;;3.40;99.90;;;;;;5053533;28;20181;-50
2022/01/24 09:48:23;;;;;;;1.60;1.50;;;3.30;99.90;;;;;;5063525;28;20182;-54
2022/01/24 09:50:52;;;;;;;2.53;1.90;;;3.20;99.90;;;;;;5080549;28;20178;-62
2022/01/24 09:53:20;;;;;;;1.57;1.47;;;3.20;99.90;;;;;;5074888;28;20186;-62
2022/01/24 09:55:46;;;;;;;2.70;1.40;;;3.40;99.90;;;;;;5060455;28;20197;-47
2022/01/24 09:58:12;;;;;;;2.37;2.17;;;3.40;99.90;;;;;;5062407;28;20186;-57
2022/01/24 10:00:39;;;;;;;3.67;3.00;;;3.40;99.90;;;;;;5060997;28;20186;-59
2022/01/24 10:03:07;;;;;;;4.63;3.13;;;3.20;99.90;;;;;;5060126;28;20186;-56
2022/01/24 10:05:37;;;;;;;2.20;2.00;;;3.30;99.90;;;;;;5079981;28;20290;-61
2022/01/24 10:08:12;;;;;;;1.90;1.80;;;3.10;99.90;;;;;;5087580;28;20246;-63
2022/01/24 10:10:49;;;;;;;2.27;1.70;;;3.00;99.90;;;;;;5062154;28;20276;-54
2022/01/24 10:19:15;;;;;;;2.13;2.03;;;3.20;99.90;;;;;;5080776;28;20189;-52
2022/01/24 10:21:46;;;;;;;1.60;1.50;;;3.40;99.90;;;;;;5066326;28;20199;-60
2022/01/24 10:24:33;;;;;;;1.87;1.77;;;3.70;99.90;;;;;;5055244;28;20229;-49
2022/01/24 10:27:06;;;;;;;2.47;2.27;;;3.90;99.90;;;;;;5059828;28;20206;-55
2022/01/24 10:29:32;;;;;;;2.20;1.60;;;3.90;99.90;;;;;;5065894;28;20186;-57
2022/01/24 10:31:58;;;;;;;2.00;1.90;;;4.30;99.90;;;;;;5065485;28;20224;-59
2022/01/24 10:34:34;;;;;;;2.40;1.73;;;4.30;99.90;;;;;;5060526;28;20262;-56
2022/01/24 10:37:00;;;;;;;3.30;1.80;;;3.60;99.90;;;;;;5058164;28;20170;-57
2022/01/24 10:45:20;;;;;;;1.43;1.33;;;3.70;99.90;;;;;;5073825;28;20239;-58
2022/01/24 10:48:05;;;;;;;1.87;1.27;;;3.80;99.90;;;;;;5079783;28;20275;-59
2022/01/24 10:50:31;;;;;;;1.87;1.73;;;3.80;99.90;;;;;;5062367;28;20187;-55
2022/01/24 10:53:12;;;;;;;1.87;1.70;;;3.60;99.90;;;;;;5061533;28;20209;-52
2022/01/24 10:55:41;;;;;;;2.67;1.63;;;3.70;99.90;;;;;;5070788;28;20181;-45
2022/01/24 10:58:13;;;;;;;1.37;1.37;;;3.70;99.90;;;;;;5057810;28;20190;-56
2022/01/24 11:00:40;;;;;;;2.33;1.37;;;3.60;99.90;;;;;;5078754;28;20186;-44
2022/01/24 11:03:14;;;;;;;2.30;1.90;;;3.50;99.90;;;;;;5058493;28;20272;-47
2022/01/24 11:05:41;;;;;;;3.53;2.13;;;3.80;99.90;;;;;;5078767;28;20214;-57
2022/01/24 11:08:27;;;;;;;3.57;2.50;;;3.60;99.90;;;;;;5079970;28;20197;-61
2022/01/24 11:10:53;;;;;;;4.73;2.20;;;3.60;99.90;;;;;;5061280;28;20182;-52
2022/01/24 11:13:20;;;;;;;2.87;2.20;;;3.20;99.90;;;;;;5060928;28;20227;-60
2022/01/24 11:15:56;;;;;;;1.97;1.87;;;3.10;99.90;;;;;;5061248;28;20204;-51
2022/01/24 11:18:42;;;;;;;2.53;1.73;;;3.30;99.90;;;;;;5077387;28;20212;-60
2022/01/24 11:21:13;;;;;;;2.83;2.33;;;3.50;99.90;;;;;;5078976;28;20267;-60
2022/01/24 11:23:40;;;;;;;2.40;2.30;;;3.50;99.90;;;;;;5056659;28;20225;-56
2022/01/24 11:26:07;;;;;;;1.70;1.60;;;3.70;99.90;;;;;;5062459;28;20177;-62
2022/01/24 11:28:52;;;;;;;2.53;2.27;;;3.90;99.90;;;;;;5078464;28;20320;-59
2022/01/24 11:32:11;;;;;;;2.37;2.23;;;4.10;99.90;;;;;;5079089;28;20197;-58
2022/01/24 11:34:39;;;;;;;1.93;1.87;;;3.80;99.90;;;;;;5034628;28;20305;-62
2022/01/24 11:37:07;;;;;;;4.80;2.77;;;3.90;99.90;;;;;;5056291;28;20293;-45
2022/01/24 11:39:35;;;;;;;2.17;2.00;;;4.00;99.90;;;;;;5041758;28;20218;-60
2022/01/24 11:42:02;;;;;;;2.53;2.20;;;3.80;99.90;;;;;;5044671;28;20178;-59
2022/01/24 11:44:51;;;;;;;1.73;1.63;;;4.00;99.90;;;;;;5041671;28;20417;-54
2022/01/24 11:47:22;;;;;;;2.27;2.07;;;4.20;99.90;;;;;;5048421;28;20252;-62
2022/01/24 11:49:52;;;;;;;2.87;2.13;;;4.50;99.90;;;;;;5025075;28;20197;-53
2022/01/24 11:52:18;;;;;;;2.50;2.07;;;4.70;99.90;;;;;;5045147;28;20204;-49
2022/01/24 11:57:40;;;;;;;2.93;2.33;;;4.80;99.90;;;;;;5049933;28;20233;-47
2022/01/24 12:00:07;;;;;;;2.67;2.40;;;4.60;99.90;;;;;;5044531;28;20274;-59
2022/01/24 12:02:56;;;;;;;3.03;2.67;;;4.80;99.90;;;;;;5048592;28;20209;-61
2022/01/24 12:05:31;;;;;;;1.93;1.73;;;4.90;99.90;;;;;;5042807;28;20198;-55
2022/01/24 12:08:03;;;;;;;3.53;2.43;;;4.50;99.90;;;;;;5046244;28;20190;-55
2022/01/24 12:10:37;;;;;;;4.73;1.97;;;4.50;99.90;;;;;;5055663;28;20263;-53
2022/01/24 12:13:20;;;;;;;4.50;2.60;;;4.40;99.90;;;;;;5078892;28;20189;-55
2022/01/24 12:15:54;;;;;;;2.20;1.70;;;4.40;99.90;;;;;;5059728;28;20186;-59
2022/01/24 12:18:21;;;;;;;4.33;2.10;;;4.50;99.90;;;;;;5083544;28;20170;-58
2022/01/24 12:20:51;;;;;;;3.20;2.03;;;4.50;99.90;;;;;;5080909;28;20239;-61
2022/01/24 12:23:19;;;;;;;2.00;1.87;;;4.60;99.90;;;;;;5061571;28;20214;-53
2022/01/24 12:26:05;;;;;;;2.00;1.90;;;4.90;99.90;;;;;;5058325;28;20182;-57
2022/01/24 12:28:53;;;;;;;1.93;1.83;;;4.90;99.90;;;;;;5080854;28;20335;-51
2022/01/24 12:31:20;;;;;;;5.40;4.33;;;4.60;99.90;;;;;;5056342;28;20193;-61
2022/01/24 12:33:55;;;;;;;4.57;2.10;;;4.70;99.90;;;;;;5071276;28;20351;-45
2022/01/24 12:37:02;;;;;;;2.93;2.40;;;4.90;99.90;;;;;;5062106;28;20185;-59
2022/01/24 12:39:45;;;;;;;2.87;2.27;;;4.70;99.90;;;;;;5053431;28;20230;-59
2022/01/24 12:42:18;;;;;;;1.90;1.67;;;4.80;99.90;;;;;;5052162;28;20194;-58
2022/01/24 12:47:27;;;;;;;2.53;2.00;;;4.50;99.90;;;;;;5078395;28;20204;-50
2022/01/24 12:49:55;;;;;;;2.60;2.40;;;4.50;99.90;;;;;;5055853;28;20197;-60
2022/01/24 12:52:25;;;;;;;3.03;2.63;;;4.50;99.90;;;;;;5062527;28;20221;-61
2022/01/24 12:54:57;;;;;;;2.40;1.90;;;4.60;99.90;;;;;;5046767;28;20186;-62
2022/01/24 12:57:29;;;;;;;3.50;2.60;;;4.50;99.90;;;;;;5066393;28;20196;-60
2022/01/24 13:00:01;;;;;;;3.13;2.33;;;4.30;99.90;;;;;;5065570;28;20245;-63
2022/01/24 13:02:32;;;;;;;3.00;1.63;;;4.20;99.90;;;;;;5067795;28;20190;-53
2022/01/24 13:05:03;;;;;;;2.57;2.47;;;3.90;99.90;;;;;;5052152;28;20302;-63
2022/01/24 13:07:31;;;;;;;3.77;2.50;;;3.80;99.90;;;;;;5080647;28;20196;-57
2022/01/24 13:10:08;;;;;;;2.40;2.20;;;3.90;99.90;;;;;;5066211;28;20293;-53
2022/01/24 13:12:35;;;;;;;2.90;2.20;;;3.70;99.90;;;;;;5065305;28;20250;-62
2022/01/24 13:15:05;;;;;;;2.20;2.00;;;3.80;99.90;;;;;;5049773;28;20193;-59
2022/01/24 13:21:06;;;;;;;2.97;1.87;;;3.90;99.90;;;;;;5072122;28;20193;-61
2022/01/24 13:23:11;;;;;;;2.47;2.33;;;3.90;99.90;;;;;;5070033;28;20233;-54
2022/01/24 13:25:40;;;;;;;1.77;1.67;;;3.70;99.90;;;;;;5051644;28;20190;-52
2022/01/24 13:28:08;;;;;;;5.37;3.60;;;3.60;99.90;;;;;;5057757;28;20190;-60
2022/01/24 13:30:43;;;;;;;2.43;2.23;;;3.70;99.90;;;;;;5065255;28;20186;-47
2022/01/24 13:33:21;;;;;;;1.80;1.67;;;3.80;99.90;;;;;;5065167;28;20185;-58
2022/01/24 13:35:52;;;;;;;2.23;2.13;;;3.80;99.90;;;;;;5079570;28;20239;-53
2022/01/24 13:38:30;;;;;;;2.33;2.13;;;3.70;99.90;;;;;;5065956;28;20220;-51
2022/01/24 13:41:01;;;;;;;6.23;3.53;;;3.80;99.90;;;;;;5064181;28;20444;-55
2022/01/24 13:43:45;;;;;;;4.37;3.63;;;3.80;99.90;;;;;;5057402;28;20233;-53
2022/01/24 13:46:25;;;;;;;8.43;1.87;;;3.80;99.90;;;;;;5080809;28;20181;-61
2022/01/24 13:48:57;;;;;;;2.13;1.90;;;3.90;99.90;;;;;;5063127;28;20268;-58
2022/01/24 13:51:46;;;;;;;1.77;1.67;;;4.00;99.90;;;;;;5078550;28;20289;-59
2022/01/24 13:54:24;;;;;;;2.77;2.57;;;3.90;99.90;;;;;;5055028;28;20195;-57
2022/01/24 13:56:59;;;;;;;2.00;1.90;;;3.80;99.90;;;;;;5079477;28;20182;-63
2022/01/24 13:59:25;;;;;;;1.33;1.20;;;3.90;99.90;;;;;;5061757;28;20182;-57
2022/01/24 14:02:09;;;;;;;2.30;2.10;;;4.10;99.90;;;;;;5058235;28;20182;-61
2022/01/24 14:04:49;;;;;;;2.10;1.90;;;4.20;99.90;;;;;;5073046;28;20236;-54
2022/01/24 14:07:34;;;;;;;2.03;1.90;;;4.20;99.90;;;;;;5098766;28;20563;-57
2022/01/24 14:10:03;;;;;;;3.60;2.23;;;4.20;99.90;;;;;;5077905;28;20197;-60
2022/01/24 14:12:41;;;;;;;2.43;2.23;;;4.20;99.90;;;;;;5062963;28;20186;-57
2022/01/24 14:15:17;;;;;;;2.90;2.70;;;4.40;99.90;;;;;;5052995;28;20217;-58
2022/01/24 14:18:06;;;;;;;2.13;1.90;;;4.80;99.90;;;;;;5077532;28;20181;-52
2022/01/24 14:20:32;;;;;;;4.20;2.57;;;6.10;99.90;;;;;;5083241;28;20189;-60
2022/01/24 14:22:58;;;;;;;2.17;1.90;;;7.60;99.90;;;;;;5063325;28;20178;-60
2022/01/24 14:25:26;;;;;;;2.30;2.10;;;10.10;99.90;;;;;;5058726;28;20214;-59
2022/01/24 14:27:54;;;;;;;2.40;1.80;;;11.10;99.90;;;;;;5062693;28;20219;-61
2022/01/24 14:30:26;;;;;;;2.03;1.87;;;12.10;99.90;;;;;;5060876;28;20366;-58
2022/01/24 14:33:04;;;;;;;3.07;1.97;;;11.90;99.90;;;;;;5082874;28;20270;-56
2022/01/24 14:35:37;;;;;;;2.23;2.03;;;12.70;99.90;;;;;;5046771;28;20200;-48
2022/01/24 14:38:04;;;;;;;1.83;1.73;;;13.00;99.90;;;;;;5055729;28;20202;-57
2022/01/24 14:40:45;;;;;;;2.03;1.90;;;13.20;99.90;;;;;;5045391;28;20258;-60
2022/01/24 14:45:58;;;;;;;2.40;2.20;;;14.20;99.90;;;;;;5086456;28;20212;-59
2022/01/24 14:48:23;;;;;;;2.70;2.50;;;13.90;99.90;;;;;;5084705;28;20194;-51
2022/01/24 14:50:49;;;;;;;1.90;1.80;;;13.90;99.90;;;;;;5086135;28;20192;-60
2022/01/24 14:53:16;;;;;;;2.63;2.43;;;13.10;99.90;;;;;;5084901;28;20281;-61
2022/01/24 14:55:43;;;;;;;2.20;2.00;;;13.10;99.90;;;;;;5087701;28;20189;-56
2022/01/24 14:58:08;;;;;;;2.83;2.10;;;13.50;99.90;;;;;;5085823;28;20617;-61
2022/01/24 15:00:34;;;;;;;3.40;2.50;;;13.60;99.90;;;;;;5087473;28;20181;-59
2022/01/24 15:03:00;;;;;;;2.60;2.40;;;13.40;99.90;;;;;;5087455;28;20287;-60
2022/01/24 15:05:26;;;;;;;3.50;2.27;;;12.20;99.90;;;;;;5085750;28;20220;-57
2022/01/24 15:07:52;;;;;;;2.57;2.33;;;10.50;99.90;;;;;;5087681;28;20212;-54
2022/01/24 15:10:18;;;;;;;3.93;2.50;;;9.70;99.90;;;;;;5085457;28;20915;-54
2022/01/24 15:12:50;;;;;;;2.23;2.10;;;8.60;99.90;;;;;;5088065;28;20185;-57
2022/01/24 15:15:18;;;;;;;3.57;2.17;;;7.90;99.90;;;;;;5086529;28;20190;-61
2022/01/24 15:25:50;;;;;;;2.03;1.83;;;6.20;99.90;;;;;;5104396;28;20185;-61
2022/01/24 15:28:17;;;;;;;2.07;1.90;;;6.00;99.90;;;;;;5086181;28;20272;-63
2022/01/24 15:30:44;;;;;;;1.83;1.73;;;5.90;99.90;;;;;;5086217;28;20188;-60
2022/01/24 15:33:10;;;;;;;2.00;1.80;;;5.80;99.90;;;;;;5074042;28;20237;-60
2022/01/24 15:35:36;;;;;;;1.03;1.03;;;5.60;99.90;;;;;;5063181;28;20301;-61
2022/01/24 15:38:05;;;;;;;2.33;2.13;;;5.40;99.90;;;;;;5064808;28;20253;-51